Cheshire, Massachusetts
Current Conditions -  °F | °C
As of 11:52 AM on Tuesday 27 Jan 2015 (Local Time) from KAQW Reporting Station
Moderate Snow Moderate Snow  
Wind Chill: -5°   Ceiling: 1300
Heat Index: 10°   Visibility: 0.5mi
Dew Point:   Wind: 12mph
Humidity: 76%   Direction: 270°W
Pressure: 29.72"   Gusts: NA
Location:  42.56°N, 73.16°W
Report Text: KAQW 271652Z AUTO 27010KT 1/2SM SN VV013 M12/M16 A2972 RMK AO2 SLP079 P0001 T11221156
Loading
Personal Weather Stations






























Interactive Weather Map New forecast layout! Learn more

10-Day Weather Forecast

Advertisements
Track Severe Weather on mobile